sensor_id;sensor_type;location;lat;lon;timestamp;pressure;altitude;pressure_sealevel;temperature
53412;BMP280;39307;52.870;13.660;2023-02-28T00:01:53;102663.28;;;-0.57
53412;BMP280;39307;52.870;13.660;2023-02-28T00:07:33;102667.16;;;-0.66
53412;BMP280;39307;52.870;13.660;2023-02-28T00:10:00;102669.28;;;-0.76
53412;BMP280;39307;52.870;13.660;2023-02-28T00:12:26;102677.00;;;-0.76
53412;BMP280;39307;52.870;13.660;2023-02-28T00:14:53;102676.22;;;-0.78
53412;BMP280;39307;52.870;13.660;2023-02-28T00:17:19;102679.63;;;-0.77
53412;BMP280;39307;52.870;13.660;2023-02-28T00:19:45;102680.66;;;-0.81
53412;BMP280;39307;52.870;13.660;2023-02-28T00:22:11;102682.41;;;-0.82
53412;BMP280;39307;52.870;13.660;2023-02-28T00:24:38;102682.53;;;-0.85
53412;BMP280;39307;52.870;13.660;2023-02-28T00:27:04;102674.09;;;-0.88
53412;BMP280;39307;52.870;13.660;2023-02-28T00:29:30;102679.56;;;-0.95
53412;BMP280;39307;52.870;13.660;2023-02-28T00:31:56;102677.94;;;-0.98
53412;BMP280;39307;52.870;13.660;2023-02-28T00:34:22;102689.28;;;-1.02
53412;BMP280;39307;52.870;13.660;2023-02-28T00:36:49;102697.00;;;-1.02
53412;BMP280;39307;52.870;13.660;2023-02-28T00:39:15;102681.81;;;-1.08
53412;BMP280;39307;52.870;13.660;2023-02-28T00:41:42;102690.31;;;-1.06
53412;BMP280;39307;52.870;13.660;2023-02-28T00:44:08;102693.19;;;-1.13
53412;BMP280;39307;52.870;13.660;2023-02-28T00:46:34;102687.34;;;-1.16
53412;BMP280;39307;52.870;13.660;2023-02-28T00:49:00;102684.06;;;-1.20
53412;BMP280;39307;52.870;13.660;2023-02-28T00:51:27;102685.84;;;-1.22
53412;BMP280;39307;52.870;13.660;2023-02-28T00:53:53;102686.75;;;-1.23
53412;BMP280;39307;52.870;13.660;2023-02-28T00:56:19;102685.78;;;-1.20
53412;BMP280;39307;52.870;13.660;2023-02-28T00:58:45;102688.28;;;-1.19
53412;BMP280;39307;52.870;13.660;2023-02-28T01:01:11;102687.53;;;-1.21
53412;BMP280;39307;52.870;13.660;2023-02-28T01:03:38;102686.78;;;-1.24
53412;BMP280;39307;52.870;13.660;2023-02-28T01:06:04;102686.94;;;-1.27
53412;BMP280;39307;52.870;13.660;2023-02-28T01:08:31;102690.97;;;-1.22
53412;BMP280;39307;52.870;13.660;2023-02-28T01:10:57;102690.47;;;-1.30
53412;BMP280;39307;52.870;13.660;2023-02-28T01:13:23;102698.91;;;-1.26
53412;BMP280;39307;52.870;13.660;2023-02-28T01:15:51;102690.41;;;-1.28
53412;BMP280;39307;52.870;13.660;2023-02-28T01:18:19;102692.22;;;-1.30
53412;BMP280;39307;52.870;13.660;2023-02-28T01:20:45;102684.38;;;-1.27
53412;BMP280;39307;52.870;13.660;2023-02-28T01:23:11;102693.09;;;-1.31
53412;BMP280;39307;52.870;13.660;2023-02-28T01:25:38;102690.00;;;-1.39
53412;BMP280;39307;52.870;13.660;2023-02-28T01:28:04;102682.34;;;-1.41
53412;BMP280;39307;52.870;13.660;2023-02-28T01:30:31;102688.63;;;-1.47
53412;BMP280;39307;52.870;13.660;2023-02-28T01:32:58;102692.34;;;-1.54
53412;BMP280;39307;52.870;13.660;2023-02-28T01:35:24;102693.53;;;-1.63
53412;BMP280;39307;52.870;13.660;2023-02-28T01:37:50;102678.41;;;-1.70
53412;BMP280;39307;52.870;13.660;2023-02-28T01:40:17;102684.56;;;-1.74
53412;BMP280;39307;52.870;13.660;2023-02-28T01:42:43;102680.38;;;-1.76
53412;BMP280;39307;52.870;13.660;2023-02-28T01:45:23;102684.69;;;-1.77
53412;BMP280;39307;52.870;13.660;2023-02-28T01:47:55;102674.53;;;-1.80
53412;BMP280;39307;52.870;13.660;2023-02-28T01:50:28;102688.16;;;-1.78
53412;BMP280;39307;52.870;13.660;2023-02-28T01:52:58;102687.34;;;-1.78
53412;BMP280;39307;52.870;13.660;2023-02-28T01:55:28;102683.84;;;-1.77
53412;BMP280;39307;52.870;13.660;2023-02-28T01:57:57;102679.50;;;-1.75
53412;BMP280;39307;52.870;13.660;2023-02-28T02:00:26;102682.06;;;-1.75
53412;BMP280;39307;52.870;13.660;2023-02-28T02:03:05;102682.06;;;-1.75
53412;BMP280;39307;52.870;13.660;2023-02-28T02:05:32;102682.19;;;-1.78
53412;BMP280;39307;52.870;13.660;2023-02-28T02:08:02;102682.19;;;-1.78
53412;BMP280;39307;52.870;13.660;2023-02-28T02:10:46;102686.63;;;-1.82
53412;BMP280;39307;52.870;13.660;2023-02-28T02:18:41;102679.75;;;-1.81
53412;BMP280;39307;52.870;13.660;2023-02-28T02:29:23;102681.53;;;-1.83
53412;BMP280;39307;52.870;13.660;2023-02-28T02:32:02;102682.66;;;-1.90
53412;BMP280;39307;52.870;13.660;2023-02-28T02:40:14;102686.22;;;-1.94
53412;BMP280;39307;52.870;13.660;2023-02-28T02:45:23;102688.59;;;-2.11
53412;BMP280;39307;52.870;13.660;2023-02-28T02:47:50;102689.53;;;-2.13
53412;BMP280;39307;52.870;13.660;2023-02-28T02:50:26;102685.47;;;-2.19
53412;BMP280;39307;52.870;13.660;2023-02-28T02:52:59;102679.69;;;-2.24
53412;BMP280;39307;52.870;13.660;2023-02-28T02:55:26;102682.59;;;-2.32
53412;BMP280;39307;52.870;13.660;2023-02-28T02:57:57;102681.75;;;-2.33
53412;BMP280;39307;52.870;13.660;2023-02-28T03:00:32;102691.84;;;-2.29
53412;BMP280;39307;52.870;13.660;2023-02-28T03:03:01;102692.41;;;-2.21
53412;BMP280;39307;52.870;13.660;2023-02-28T03:05:48;102690.44;;;-2.14
53412;BMP280;39307;52.870;13.660;2023-02-28T03:08:15;102686.06;;;-2.12
53412;BMP280;39307;52.870;13.660;2023-02-28T03:10:50;102683.00;;;-2.22
53412;BMP280;39307;52.870;13.660;2023-02-28T03:13:42;102686.59;;;-2.26
53412;BMP280;39307;52.870;13.660;2023-02-28T03:19:02;102693.00;;;-2.37
53412;BMP280;39307;52.870;13.660;2023-02-28T03:22:14;102696.53;;;-2.39
53412;BMP280;39307;52.870;13.660;2023-02-28T03:24:50;102701.78;;;-2.42
53412;BMP280;39307;52.870;13.660;2023-02-28T03:27:34;102698.53;;;-2.47
53412;BMP280;39307;52.870;13.660;2023-02-28T03:30:09;102695.16;;;-2.49
53412;BMP280;39307;52.870;13.660;2023-02-28T03:32:48;102693.22;;;-2.43
53412;BMP280;39307;52.870;13.660;2023-02-28T03:35:22;102695.75;;;-2.41
53412;BMP280;39307;52.870;13.660;2023-02-28T03:40:46;102696.28;;;-2.56
53412;BMP280;39307;52.870;13.660;2023-02-28T03:43:20;102698.97;;;-2.59
53412;BMP280;39307;52.870;13.660;2023-02-28T03:45:50;102705.63;;;-2.55
53412;BMP280;39307;52.870;13.660;2023-02-28T03:48:51;102699.69;;;-2.56
53412;BMP280;39307;52.870;13.660;2023-02-28T03:51:22;102706.41;;;-2.52
53412;BMP280;39307;52.870;13.660;2023-02-28T03:53:56;102708.78;;;-2.47
53412;BMP280;39307;52.870;13.660;2023-02-28T03:56:51;102707.06;;;-2.47
53412;BMP280;39307;52.870;13.660;2023-02-28T03:59:36;102705.59;;;-2.54
53412;BMP280;39307;52.870;13.660;2023-02-28T04:02:04;102708.16;;;-2.54
53412;BMP280;39307;52.870;13.660;2023-02-28T04:04:30;102704.91;;;-2.59
53412;BMP280;39307;52.870;13.660;2023-02-28T04:07:05;102715.44;;;-2.66
53412;BMP280;39307;52.870;13.660;2023-02-28T04:09:31;102708.91;;;-2.74
53412;BMP280;39307;52.870;13.660;2023-02-28T04:11:58;102717.63;;;-2.80
53412;BMP280;39307;52.870;13.660;2023-02-28T04:14:24;102713.44;;;-2.82
53412;BMP280;39307;52.870;13.660;2023-02-28T04:16:50;102726.22;;;-2.81
53412;BMP280;39307;52.870;13.660;2023-02-28T04:19:17;102721.13;;;-2.82
53412;BMP280;39307;52.870;13.660;2023-02-28T04:21:46;102718.53;;;-2.81
53412;BMP280;39307;52.870;13.660;2023-02-28T04:24:18;102718.53;;;-2.81
53412;BMP280;39307;52.870;13.660;2023-02-28T04:26:50;102715.38;;;-2.88
53412;BMP280;39307;52.870;13.660;2023-02-28T04:29:23;102717.28;;;-2.93
53412;BMP280;39307;52.870;13.660;2023-02-28T04:31:50;102727.53;;;-2.93
53412;BMP280;39307;52.870;13.660;2023-02-28T04:34:16;102719.84;;;-2.93
53412;BMP280;39307;52.870;13.660;2023-02-28T04:36:42;102719.06;;;-2.95
53412;BMP280;39307;52.870;13.660;2023-02-28T04:39:09;102723.44;;;-2.99
53412;BMP280;39307;52.870;13.660;2023-02-28T04:41:35;102720.09;;;-3.01
53412;BMP280;39307;52.870;13.660;2023-02-28T04:44:01;102717.81;;;-3.10
53412;BMP280;39307;52.870;13.660;2023-02-28T04:46:27;102727.25;;;-3.10
53412;BMP280;39307;52.870;13.660;2023-02-28T04:48:54;102731.59;;;-3.12
53412;BMP280;39307;52.870;13.660;2023-02-28T04:51:20;102732.53;;;-3.15
53412;BMP280;39307;52.870;13.660;2023-02-28T04:53:47;102730.81;;;-3.14
53412;BMP280;39307;52.870;13.660;2023-02-28T04:56:15;102731.69;;;-3.15
53412;BMP280;39307;52.870;13.660;2023-02-28T04:58:42;102735.22;;;-3.19
53412;BMP280;39307;52.870;13.660;2023-02-28T05:01:19;102731.78;;;-3.18
53412;BMP280;39307;52.870;13.660;2023-02-28T05:03:47;102733.34;;;-3.14
53412;BMP280;39307;52.870;13.660;2023-02-28T05:06:13;102736.94;;;-3.19
53412;BMP280;39307;52.870;13.660;2023-02-28T05:08:42;102746.56;;;-3.26
53412;BMP280;39307;52.870;13.660;2023-02-28T05:11:17;102737.22;;;-3.27
53412;BMP280;39307;52.870;13.660;2023-02-28T05:13:45;102744.09;;;-3.29
53412;BMP280;39307;52.870;13.660;2023-02-28T05:16:11;102739.06;;;-3.32
53412;BMP280;39307;52.870;13.660;2023-02-28T05:18:38;102745.94;;;-3.34
53412;BMP280;39307;52.870;13.660;2023-02-28T05:21:04;102751.06;;;-3.34
53412;BMP280;39307;52.870;13.660;2023-02-28T05:23:30;102743.47;;;-3.37
53412;BMP280;39307;52.870;13.660;2023-02-28T05:25:58;102754.78;;;-3.42
53412;BMP280;39307;52.870;13.660;2023-02-28T05:28:24;102746.41;;;-3.47
53412;BMP280;39307;52.870;13.660;2023-02-28T05:30:50;102756.00;;;-3.53
53412;BMP280;39307;52.870;13.660;2023-02-28T05:33:16;102757.66;;;-3.52
53412;BMP280;39307;52.870;13.660;2023-02-28T05:35:42;102753.44;;;-3.53
53412;BMP280;39307;52.870;13.660;2023-02-28T05:38:09;102758.63;;;-3.56
53412;BMP280;39307;52.870;13.660;2023-02-28T05:40:35;102760.47;;;-3.60
53412;BMP280;39307;52.870;13.660;2023-02-28T05:43:04;102754.59;;;-3.63
53412;BMP280;39307;52.870;13.660;2023-02-28T05:45:31;102758.00;;;-3.63
53412;BMP280;39307;52.870;13.660;2023-02-28T05:47:57;102771.69;;;-3.64
53412;BMP280;39307;52.870;13.660;2023-02-28T05:50:23;102767.44;;;-3.65
53412;BMP280;39307;52.870;13.660;2023-02-28T05:52:50;102766.59;;;-3.65
53412;BMP280;39307;52.870;13.660;2023-02-28T05:55:17;102768.34;;;-3.67
53412;BMP280;39307;52.870;13.660;2023-02-28T05:57:43;102775.25;;;-3.69
53412;BMP280;39307;52.870;13.660;2023-02-28T06:00:09;102780.47;;;-3.72
53412;BMP280;39307;52.870;13.660;2023-02-28T06:02:36;102777.94;;;-3.74
53412;BMP280;39307;52.870;13.660;2023-02-28T06:05:02;102774.53;;;-3.74
53412;BMP280;39307;52.870;13.660;2023-02-28T06:07:28;102776.97;;;-3.70
53412;BMP280;39307;52.870;13.660;2023-02-28T06:09:54;102777.06;;;-3.73
53412;BMP280;39307;52.870;13.660;2023-02-28T06:12:20;102773.75;;;-3.76
53412;BMP280;39307;52.870;13.660;2023-02-28T06:14:46;102771.19;;;-3.76
53412;BMP280;39307;52.870;13.660;2023-02-28T06:17:12;102783.16;;;-3.76
53412;BMP280;39307;52.870;13.660;2023-02-28T06:19:38;102778.09;;;-3.78
53412;BMP280;39307;52.870;13.660;2023-02-28T06:22:05;102779.81;;;-3.78
53412;BMP280;39307;52.870;13.660;2023-02-28T06:24:31;102789.22;;;-3.79
53412;BMP280;39307;52.870;13.660;2023-02-28T06:26:57;102791.88;;;-3.82
53412;BMP280;39307;52.870;13.660;2023-02-28T06:29:23;102788.50;;;-3.84
53412;BMP280;39307;52.870;13.660;2023-02-28T06:31:49;102791.06;;;-3.84
53412;BMP280;39307;52.870;13.660;2023-02-28T06:34:16;102797.84;;;-3.83
53412;BMP280;39307;52.870;13.660;2023-02-28T06:36:42;102792.78;;;-3.84
53412;BMP280;39307;52.870;13.660;2023-02-28T06:39:09;102797.06;;;-3.85
53412;BMP280;39307;52.870;13.660;2023-02-28T06:41:35;102798.66;;;-3.81
53412;BMP280;39307;52.870;13.660;2023-02-28T06:44:02;102811.44;;;-3.81
53412;BMP280;39307;52.870;13.660;2023-02-28T06:46:28;102799.47;;;-3.80
53412;BMP280;39307;52.870;13.660;2023-02-28T06:48:54;102800.41;;;-3.83
53412;BMP280;39307;52.870;13.660;2023-02-28T06:51:20;102796.19;;;-3.84
53412;BMP280;39307;52.870;13.660;2023-02-28T06:53:47;102803.84;;;-3.84
53412;BMP280;39307;52.870;13.660;2023-02-28T06:56:15;102801.25;;;-3.82
53412;BMP280;39307;52.870;13.660;2023-02-28T06:58:41;102805.44;;;-3.80
53412;BMP280;39307;52.870;13.660;2023-02-28T07:01:08;102808.81;;;-3.78
53412;BMP280;39307;52.870;13.660;2023-02-28T07:03:37;102813.00;;;-3.75
53412;BMP280;39307;52.870;13.660;2023-02-28T07:06:05;102812.91;;;-3.73
53412;BMP280;39307;52.870;13.660;2023-02-28T07:08:31;102811.00;;;-3.66
53412;BMP280;39307;52.870;13.660;2023-02-28T07:10:58;102810.84;;;-3.60
53412;BMP280;39307;52.870;13.660;2023-02-28T07:13:24;102817.63;;;-3.59
53412;BMP280;39307;52.870;13.660;2023-02-28T07:16:00;102811.66;;;-3.60
53412;BMP280;39307;52.870;13.660;2023-02-28T07:18:26;102817.53;;;-3.56
53412;BMP280;39307;52.870;13.660;2023-02-28T07:20:53;102809.88;;;-3.58
53412;BMP280;39307;52.870;13.660;2023-02-28T07:23:19;102816.63;;;-3.55
53412;BMP280;39307;52.870;13.660;2023-02-28T07:25:46;102818.34;;;-3.54
53412;BMP280;39307;52.870;13.660;2023-02-28T07:28:13;102823.31;;;-3.50
53412;BMP280;39307;52.870;13.660;2023-02-28T07:30:40;102820.72;;;-3.48
53412;BMP280;39307;52.870;13.660;2023-02-28T07:33:06;102822.31;;;-3.46
53412;BMP280;39307;52.870;13.660;2023-02-28T07:35:33;102814.56;;;-3.43
53412;BMP280;39307;52.870;13.660;2023-02-28T07:37:59;102817.00;;;-3.39
53412;BMP280;39307;52.870;13.660;2023-02-28T07:40:26;102818.53;;;-3.33
53412;BMP280;39307;52.870;13.660;2023-02-28T07:42:52;102813.31;;;-3.30
53412;BMP280;39307;52.870;13.660;2023-02-28T07:45:18;102818.28;;;-3.26
53412;BMP280;39307;52.870;13.660;2023-02-28T07:47:45;102818.09;;;-3.20
53412;BMP280;39307;52.870;13.660;2023-02-28T07:50:13;102817.91;;;-3.14
53412;BMP280;39307;52.870;13.660;2023-02-28T07:52:40;102815.00;;;-3.04
53412;BMP280;39307;52.870;13.660;2023-02-28T07:55:08;102815.81;;;-3.02
53412;BMP280;39307;52.870;13.660;2023-02-28T07:57:34;102817.34;;;-2.96
53412;BMP280;39307;52.870;13.660;2023-02-28T08:00:01;102821.38;;;-2.89
53412;BMP280;39307;52.870;13.660;2023-02-28T08:02:28;102822.00;;;-2.82
53412;BMP280;39307;52.870;13.660;2023-02-28T08:04:54;102819.97;;;-2.72
53412;BMP280;39307;52.870;13.660;2023-02-28T08:07:20;102819.69;;;-2.65
53412;BMP280;39307;52.870;13.660;2023-02-28T08:09:46;102813.44;;;-2.57
53412;BMP280;39307;52.870;13.660;2023-02-28T08:12:12;102808.81;;;-2.47
53412;BMP280;39307;52.870;13.660;2023-02-28T08:14:37;102807.59;;;-2.37
53412;BMP280;39307;52.870;13.660;2023-02-28T08:17:04;102810.88;;;-2.32
53412;BMP280;39307;52.870;13.660;2023-02-28T08:19:30;102804.38;;;-2.18
53412;BMP280;39307;52.870;13.660;2023-02-28T08:21:56;102803.75;;;-1.79
53412;BMP280;39307;52.870;13.660;2023-02-28T08:24:22;102803.00;;;-1.38
53412;BMP280;39307;52.870;13.660;2023-02-28T08:26:49;102805.75;;;-1.00
53412;BMP280;39307;52.870;13.660;2023-02-28T08:29:15;102802.28;;;-0.79
53412;BMP280;39307;52.870;13.660;2023-02-28T08:31:41;102795.94;;;-0.71
53412;BMP280;39307;52.870;13.660;2023-02-28T08:34:08;102791.50;;;-0.67
53412;BMP280;39307;52.870;13.660;2023-02-28T08:36:35;102794.53;;;-0.58
53412;BMP280;39307;52.870;13.660;2023-02-28T08:39:01;102796.59;;;-0.46
53412;BMP280;39307;52.870;13.660;2023-02-28T08:41:27;102790.63;;;-0.27
53412;BMP280;39307;52.870;13.660;2023-02-28T08:43:54;102785.56;;;-0.10
53412;BMP280;39307;52.870;13.660;2023-02-28T08:46:20;102787.38;;;0.06
53412;BMP280;39307;52.870;13.660;2023-02-28T08:48:46;102787.34;;;0.07
53412;BMP280;39307;52.870;13.660;2023-02-28T08:51:15;102788.59;;;0.17
53412;BMP280;39307;52.870;13.660;2023-02-28T08:53:42;102789.38;;;0.19
53412;BMP280;39307;52.870;13.660;2023-02-28T08:56:12;102794.31;;;0.24
53412;BMP280;39307;52.870;13.660;2023-02-28T08:58:38;102788.81;;;0.31
53412;BMP280;39307;52.870;13.660;2023-02-28T09:01:13;102796.13;;;0.40
53412;BMP280;39307;52.870;13.660;2023-02-28T09:03:40;102794.16;;;0.45
53412;BMP280;39307;52.870;13.660;2023-02-28T09:06:07;102791.44;;;0.48
53412;BMP280;39307;52.870;13.660;2023-02-28T09:08:33;102792.91;;;0.53
53412;BMP280;39307;52.870;13.660;2023-02-28T09:11:00;102795.34;;;0.56
53412;BMP280;39307;52.870;13.660;2023-02-28T09:13:27;102786.66;;;0.58
53412;BMP280;39307;52.870;13.660;2023-02-28T09:15:53;102790.75;;;0.62
53412;BMP280;39307;52.870;13.660;2023-02-28T09:18:20;102788.94;;;0.64
53412;BMP280;39307;52.870;13.660;2023-02-28T09:20:46;102788.72;;;0.69
53412;BMP280;39307;52.870;13.660;2023-02-28T09:23:12;102784.25;;;0.72
53412;BMP280;39307;52.870;13.660;2023-02-28T09:25:50;102783.06;;;0.79
53412;BMP280;39307;52.870;13.660;2023-02-28T09:28:16;102784.22;;;0.90
53412;BMP280;39307;52.870;13.660;2023-02-28T09:30:48;102794.19;;;0.98
53412;BMP280;39307;52.870;13.660;2023-02-28T09:33:15;102794.78;;;1.03
53412;BMP280;39307;52.870;13.660;2023-02-28T09:35:42;102773.78;;;1.27
53412;BMP280;39307;52.870;13.660;2023-02-28T09:38:10;102769.75;;;1.38
53412;BMP280;39307;52.870;13.660;2023-02-28T09:43:14;102777.41;;;1.56
53412;BMP280;39307;52.870;13.660;2023-02-28T09:45:44;102769.25;;;1.64
53412;BMP280;39307;52.870;13.660;2023-02-28T09:48:37;102767.66;;;1.78
53412;BMP280;39307;52.870;13.660;2023-02-28T09:53:38;102770.28;;;1.93
53412;BMP280;39307;52.870;13.660;2023-02-28T09:56:09;102768.13;;;2.01
53412;BMP280;39307;52.870;13.660;2023-02-28T09:58:49;102777.72;;;2.14
53412;BMP280;39307;52.870;13.660;2023-02-28T10:04:32;102783.00;;;2.28
53412;BMP280;39307;52.870;13.660;2023-02-28T10:07:03;102775.28;;;2.43
53412;BMP280;39307;52.870;13.660;2023-02-28T10:09:33;102780.59;;;2.56
53412;BMP280;39307;52.870;13.660;2023-02-28T10:12:05;102776.69;;;2.64
53412;BMP280;39307;52.870;13.660;2023-02-28T10:14:34;102778.25;;;2.66
53412;BMP280;39307;52.870;13.660;2023-02-28T10:17:20;102780.41;;;2.89
53412;BMP280;39307;52.870;13.660;2023-02-28T10:20:06;102774.38;;;3.04
53412;BMP280;39307;52.870;13.660;2023-02-28T10:25:28;102772.19;;;3.54
53412;BMP280;39307;52.870;13.660;2023-02-28T10:28:10;102770.00;;;3.62
53412;BMP280;39307;52.870;13.660;2023-02-28T10:30:51;102767.59;;;3.59
53412;BMP280;39307;52.870;13.660;2023-02-28T10:33:23;102776.47;;;3.55
53412;BMP280;39307;52.870;13.660;2023-02-28T10:35:50;102770.53;;;3.53
53412;BMP280;39307;52.870;13.660;2023-02-28T10:38:22;102762.50;;;3.58
53412;BMP280;39307;52.870;13.660;2023-02-28T10:40:49;102760.88;;;3.42
53412;BMP280;39307;52.870;13.660;2023-02-28T10:46:12;102756.25;;;3.33
53412;BMP280;39307;52.870;13.660;2023-02-28T10:48:42;102739.88;;;3.18
53412;BMP280;39307;52.870;13.660;2023-02-28T10:51:12;102737.44;;;3.16
53412;BMP280;39307;52.870;13.660;2023-02-28T10:53:55;102726.56;;;3.38
53412;BMP280;39307;52.870;13.660;2023-02-28T10:56:23;102722.06;;;3.55
53412;BMP280;39307;52.870;13.660;2023-02-28T10:58:59;102717.78;;;3.54
53412;BMP280;39307;52.870;13.660;2023-02-28T11:01:40;102726.63;;;3.23
53412;BMP280;39307;52.870;13.660;2023-02-28T11:07:03;102731.09;;;3.06
53412;BMP280;39307;52.870;13.660;2023-02-28T11:09:39;102730.38;;;3.04
53412;BMP280;39307;52.870;13.660;2023-02-28T11:12:19;102731.09;;;3.06
53412;BMP280;39307;52.870;13.660;2023-02-28T11:15:24;102728.00;;;3.15
53412;BMP280;39307;52.870;13.660;2023-02-28T11:20:49;102729.69;;;3.29
53412;BMP280;39307;52.870;13.660;2023-02-28T11:23:17;102729.41;;;3.20
53412;BMP280;39307;52.870;13.660;2023-02-28T11:25:55;102728.13;;;3.27
53412;BMP280;39307;52.870;13.660;2023-02-28T11:28:38;102717.16;;;3.92
53412;BMP280;39307;52.870;13.660;2023-02-28T11:33:49;102723.56;;;4.40
53412;BMP280;39307;52.870;13.660;2023-02-28T11:36:25;102714.31;;;4.88
53412;BMP280;39307;52.870;13.660;2023-02-28T11:38:55;102714.31;;;4.88
53412;BMP280;39307;52.870;13.660;2023-02-28T11:47:00;102707.63;;;5.23
53412;BMP280;39307;52.870;13.660;2023-02-28T11:49:31;102701.41;;;5.38
53412;BMP280;39307;52.870;13.660;2023-02-28T11:52:05;102701.22;;;5.53
53412;BMP280;39307;52.870;13.660;2023-02-28T11:55:09;102704.44;;;5.44
53412;BMP280;39307;52.870;13.660;2023-02-28T12:05:44;102688.69;;;4.58
53412;BMP280;39307;52.870;13.660;2023-02-28T12:08:32;102689.47;;;4.46
53412;BMP280;39307;52.870;13.660;2023-02-28T12:11:33;102677.97;;;4.50
53412;BMP280;39307;52.870;13.660;2023-02-28T12:14:18;102679.44;;;5.05
53412;BMP280;39307;52.870;13.660;2023-02-28T12:20:05;102676.34;;;4.61
53412;BMP280;39307;52.870;13.660;2023-02-28T12:22:43;102667.38;;;4.79
53412;BMP280;39307;52.870;13.660;2023-02-28T12:25:24;102663.47;;;4.60
53412;BMP280;39307;52.870;13.660;2023-02-28T12:27:58;102655.94;;;4.43
53412;BMP280;39307;52.870;13.660;2023-02-28T12:31:04;102657.19;;;4.24
53412;BMP280;39307;52.870;13.660;2023-02-28T12:33:36;102650.06;;;4.28
53412;BMP280;39307;52.870;13.660;2023-02-28T12:36:13;102633.84;;;4.24
53412;BMP280;39307;52.870;13.660;2023-02-28T12:39:10;102624.72;;;4.45
53412;BMP280;39307;52.870;13.660;2023-02-28T12:41:46;102626.19;;;4.49
53412;BMP280;39307;52.870;13.660;2023-02-28T12:44:23;102620.69;;;4.27
53412;BMP280;39307;52.870;13.660;2023-02-28T12:46:57;102616.38;;;4.28
53412;BMP280;39307;52.870;13.660;2023-02-28T12:49:34;102612.91;;;4.53
53412;BMP280;39307;52.870;13.660;2023-02-28T12:52:05;102613.84;;;4.52
53412;BMP280;39307;52.870;13.660;2023-02-28T12:54:43;102618.44;;;4.61
53412;BMP280;39307;52.870;13.660;2023-02-28T13:00:20;102605.09;;;5.28
53412;BMP280;39307;52.870;13.660;2023-02-28T13:03:02;102603.00;;;4.96
53412;BMP280;39307;52.870;13.660;2023-02-28T13:11:30;102615.88;;;4.73
53412;BMP280;39307;52.870;13.660;2023-02-28T13:14:02;102606.53;;;4.71
53412;BMP280;39307;52.870;13.660;2023-02-28T13:19:19;102611.38;;;4.63
53412;BMP280;39307;52.870;13.660;2023-02-28T13:21:47;102610.75;;;4.59
53412;BMP280;39307;52.870;13.660;2023-02-28T13:24:47;102606.50;;;4.59
53412;BMP280;39307;52.870;13.660;2023-02-28T13:33:24;102603.38;;;4.66
53412;BMP280;39307;52.870;13.660;2023-02-28T13:38:51;102592.84;;;5.18
53412;BMP280;39307;52.870;13.660;2023-02-28T13:41:47;102581.56;;;5.54
53412;BMP280;39307;52.870;13.660;2023-02-28T13:44:22;102594.47;;;5.56
53412;BMP280;39307;52.870;13.660;2023-02-28T13:51:50;102589.09;;;4.85
53412;BMP280;39307;52.870;13.660;2023-02-28T14:00:22;102587.22;;;5.24
53412;BMP280;39307;52.870;13.660;2023-02-28T14:05:41;102586.72;;;4.82
53412;BMP280;39307;52.870;13.660;2023-02-28T14:08:15;102582.66;;;4.78
53412;BMP280;39307;52.870;13.660;2023-02-28T14:10:46;102583.38;;;4.80
53412;BMP280;39307;52.870;13.660;2023-02-28T14:13:44;102581.63;;;4.81
53412;BMP280;39307;52.870;13.660;2023-02-28T14:16:24;102577.78;;;4.74
53412;BMP280;39307;52.870;13.660;2023-02-28T14:19:00;102566.88;;;5.06
53412;BMP280;39307;52.870;13.660;2023-02-28T14:21:32;102569.38;;;5.07
53412;BMP280;39307;52.870;13.660;2023-02-28T14:32:40;102569.44;;;4.57
53412;BMP280;39307;52.870;13.660;2023-02-28T14:37:53;102565.84;;;4.84
53412;BMP280;39307;52.870;13.660;2023-02-28T14:40:28;102556.69;;;4.78
53412;BMP280;39307;52.870;13.660;2023-02-28T14:42:59;102562.81;;;4.53
53412;BMP280;39307;52.870;13.660;2023-02-28T14:45:29;102568.63;;;4.68
53412;BMP280;39307;52.870;13.660;2023-02-28T14:47:57;102559.69;;;4.60
53412;BMP280;39307;52.870;13.660;2023-02-28T14:50:27;102562.06;;;4.51
53412;BMP280;39307;52.870;13.660;2023-02-28T14:52:56;102563.94;;;4.49
53412;BMP280;39307;52.870;13.660;2023-02-28T14:55:32;102559.03;;;4.44
53412;BMP280;39307;52.870;13.660;2023-02-28T14:58:05;102559.69;;;4.72
53412;BMP280;39307;52.870;13.660;2023-02-28T15:00:33;102556.59;;;4.55
53412;BMP280;39307;52.870;13.660;2023-02-28T15:03:13;102557.19;;;4.59
53412;BMP280;39307;52.870;13.660;2023-02-28T15:05:55;102572.38;;;4.26
53412;BMP280;39307;52.870;13.660;2023-02-28T15:08:22;102565.56;;;4.11
53412;BMP280;39307;52.870;13.660;2023-02-28T15:10:52;102557.38;;;4.05
53412;BMP280;39307;52.870;13.660;2023-02-28T15:13:19;102557.38;;;4.05
53412;BMP280;39307;52.870;13.660;2023-02-28T15:15:53;102561.75;;;4.17
53412;BMP280;39307;52.870;13.660;2023-02-28T15:18:31;102545.34;;;4.04
53412;BMP280;39307;52.870;13.660;2023-02-28T15:21:04;102550.47;;;3.92
53412;BMP280;39307;52.870;13.660;2023-02-28T15:23:36;102559.56;;;3.85
53412;BMP280;39307;52.870;13.660;2023-02-28T15:26:02;102557.47;;;4.03
53412;BMP280;39307;52.870;13.660;2023-02-28T15:28:29;102560.28;;;3.87
53412;BMP280;39307;52.870;13.660;2023-02-28T15:31:02;102549.91;;;4.01
53412;BMP280;39307;52.870;13.660;2023-02-28T15:33:34;102545.97;;;3.81
53412;BMP280;39307;52.870;13.660;2023-02-28T15:36:16;102549.31;;;3.70
53412;BMP280;39307;52.870;13.660;2023-02-28T15:38:44;102540.84;;;3.68
53412;BMP280;39307;52.870;13.660;2023-02-28T15:41:28;102549.78;;;3.76
53412;BMP280;39307;52.870;13.660;2023-02-28T15:44:29;102553.22;;;3.63
53412;BMP280;39307;52.870;13.660;2023-02-28T15:49:49;102553.91;;;3.39
53412;BMP280;39307;52.870;13.660;2023-02-28T15:52:28;102555.13;;;3.33
53412;BMP280;39307;52.870;13.660;2023-02-28T15:54:57;102559.66;;;3.30
53412;BMP280;39307;52.870;13.660;2023-02-28T15:57:28;102556.91;;;3.19
53412;BMP280;39307;52.870;13.660;2023-02-28T15:59:57;102560.22;;;3.21
53412;BMP280;39307;52.870;13.660;2023-02-28T16:02:34;102551.72;;;3.05
53412;BMP280;39307;52.870;13.660;2023-02-28T16:07:39;102557.19;;;3.01
53412;BMP280;39307;52.870;13.660;2023-02-28T16:10:06;102548.28;;;2.91
53412;BMP280;39307;52.870;13.660;2023-02-28T16:12:36;102555.75;;;2.82